Camp Claiborne, Louisiana
Current Conditions -  °F | °C
As of 11:53 AM on Friday 28 Nov 2014 (Local Time) from KAEX Reporting Station
Clear Clear  
Wind Chill: 55°   Ceiling: Unl
Heat Index: 55°   Visibility: 10mi
Dew Point: 36°   Wind: 7mph
Humidity: 49%   Direction: 110°ESE
Pressure: 30.32"   Gusts: NA
Location:  31.0356°N, 92.5053°W
Report Text: KAEX 281753Z 11006KT 10SM CLR 13/02 A3032 RMK AO2 PRESFR SLP273 T01280022 10128 20000 58027
Loading
Personal Weather Stations






























Interactive Weather Map New forecast layout! Learn more

10-Day Weather Forecast

Advertisements
Track Severe Weather on mobile